sensor_id;sensor_type;location;lat;lon;timestamp;P1;durP1;ratioP1;P2;durP2;ratioP2
64140;SDS011;50436;50.618;7.932;2022-07-23T00:00:53;11.73;;;6.78;;
64140;SDS011;50436;50.618;7.932;2022-07-23T00:03:19;10.88;;;6.53;;
64140;SDS011;50436;50.618;7.932;2022-07-23T00:05:44;8.98;;;6.80;;
64140;SDS011;50436;50.618;7.932;2022-07-23T00:08:10;13.85;;;7.22;;
64140;SDS011;50436;50.618;7.932;2022-07-23T00:10:35;10.40;;;7.38;;
64140;SDS011;50436;50.618;7.932;2022-07-23T00:13:01;9.02;;;6.25;;
64140;SDS011;50436;50.618;7.932;2022-07-23T00:15:27;8.70;;;6.90;;
64140;SDS011;50436;50.618;7.932;2022-07-23T00:17:53;10.55;;;7.25;;
64140;SDS011;50436;50.618;7.932;2022-07-23T00:20:19;11.82;;;6.93;;
64140;SDS011;50436;50.618;7.932;2022-07-23T00:22:48;9.93;;;6.72;;
64140;SDS011;50436;50.618;7.932;2022-07-23T00:25:15;9.37;;;7.10;;
64140;SDS011;50436;50.618;7.932;2022-07-23T00:27:40;11.30;;;7.47;;
64140;SDS011;50436;50.618;7.932;2022-07-23T00:30:06;9.88;;;7.78;;
64140;SDS011;50436;50.618;7.932;2022-07-23T00:32:44;10.80;;;6.88;;
64140;SDS011;50436;50.618;7.932;2022-07-23T00:35:12;12.40;;;7.40;;
64140;SDS011;50436;50.618;7.932;2022-07-23T00:37:38;11.45;;;7.50;;
64140;SDS011;50436;50.618;7.932;2022-07-23T00:40:04;11.18;;;7.20;;
64140;SDS011;50436;50.618;7.932;2022-07-23T00:42:31;11.60;;;7.93;;
64140;SDS011;50436;50.618;7.932;2022-07-23T00:44:56;11.93;;;7.95;;
64140;SDS011;50436;50.618;7.932;2022-07-23T00:47:22;12.95;;;7.78;;
64140;SDS011;50436;50.618;7.932;2022-07-23T00:49:47;13.93;;;7.85;;
64140;SDS011;50436;50.618;7.932;2022-07-23T00:52:13;11.18;;;8.18;;
64140;SDS011;50436;50.618;7.932;2022-07-23T00:54:38;10.25;;;7.82;;
64140;SDS011;50436;50.618;7.932;2022-07-23T00:57:04;14.32;;;8.10;;
64140;SDS011;50436;50.618;7.932;2022-07-23T00:59:30;15.57;;;9.00;;
64140;SDS011;50436;50.618;7.932;2022-07-23T01:01:56;13.88;;;7.80;;
64140;SDS011;50436;50.618;7.932;2022-07-23T01:04:21;12.38;;;8.35;;
64140;SDS011;50436;50.618;7.932;2022-07-23T01:06:47;12.48;;;7.82;;
64140;SDS011;50436;50.618;7.932;2022-07-23T01:09:12;15.93;;;8.52;;
64140;SDS011;50436;50.618;7.932;2022-07-23T01:11:38;13.45;;;8.27;;
64140;SDS011;50436;50.618;7.932;2022-07-23T01:14:12;17.75;;;9.00;;
64140;SDS011;50436;50.618;7.932;2022-07-23T01:16:41;14.07;;;8.55;;
64140;SDS011;50436;50.618;7.932;2022-07-23T01:19:08;12.30;;;8.07;;
64140;SDS011;50436;50.618;7.932;2022-07-23T01:21:35;13.38;;;8.10;;
64140;SDS011;50436;50.618;7.932;2022-07-23T01:24:06;12.38;;;8.82;;
64140;SDS011;50436;50.618;7.932;2022-07-23T01:26:35;12.88;;;7.95;;
64140;SDS011;50436;50.618;7.932;2022-07-23T01:29:01;13.77;;;8.75;;
64140;SDS011;50436;50.618;7.932;2022-07-23T01:31:28;15.80;;;7.75;;
64140;SDS011;50436;50.618;7.932;2022-07-23T01:33:53;12.52;;;8.68;;
64140;SDS011;50436;50.618;7.932;2022-07-23T01:36:19;14.15;;;8.45;;
64140;SDS011;50436;50.618;7.932;2022-07-23T01:38:45;13.60;;;8.63;;
64140;SDS011;50436;50.618;7.932;2022-07-23T01:41:11;12.25;;;8.63;;
64140;SDS011;50436;50.618;7.932;2022-07-23T01:43:36;15.13;;;8.65;;
64140;SDS011;50436;50.618;7.932;2022-07-23T01:46:03;13.65;;;8.57;;
64140;SDS011;50436;50.618;7.932;2022-07-23T01:48:35;15.43;;;9.25;;
64140;SDS011;50436;50.618;7.932;2022-07-23T01:51:18;15.60;;;8.52;;
64140;SDS011;50436;50.618;7.932;2022-07-23T01:53:52;12.05;;;8.15;;
64140;SDS011;50436;50.618;7.932;2022-07-23T01:56:18;14.40;;;8.73;;
64140;SDS011;50436;50.618;7.932;2022-07-23T01:58:46;15.63;;;8.13;;
64140;SDS011;50436;50.618;7.932;2022-07-23T02:01:12;14.18;;;8.93;;
64140;SDS011;50436;50.618;7.932;2022-07-23T02:03:37;14.23;;;8.75;;
64140;SDS011;50436;50.618;7.932;2022-07-23T02:06:03;14.10;;;8.75;;
64140;SDS011;50436;50.618;7.932;2022-07-23T02:08:29;14.18;;;9.25;;
64140;SDS011;50436;50.618;7.932;2022-07-23T02:10:54;18.38;;;9.80;;
64140;SDS011;50436;50.618;7.932;2022-07-23T02:13:20;12.02;;;7.90;;
64140;SDS011;50436;50.618;7.932;2022-07-23T02:15:46;13.65;;;8.82;;
64140;SDS011;50436;50.618;7.932;2022-07-23T02:18:12;12.35;;;9.02;;
64140;SDS011;50436;50.618;7.932;2022-07-23T02:20:38;14.27;;;9.10;;
64140;SDS011;50436;50.618;7.932;2022-07-23T02:23:06;14.00;;;9.55;;
64140;SDS011;50436;50.618;7.932;2022-07-23T02:25:33;15.98;;;9.77;;
64140;SDS011;50436;50.618;7.932;2022-07-23T02:28:00;16.45;;;9.82;;
64140;SDS011;50436;50.618;7.932;2022-07-23T02:30:26;14.48;;;9.50;;
64140;SDS011;50436;50.618;7.932;2022-07-23T02:32:51;19.42;;;10.45;;
64140;SDS011;50436;50.618;7.932;2022-07-23T02:35:16;13.52;;;8.82;;
64140;SDS011;50436;50.618;7.932;2022-07-23T02:37:42;15.43;;;9.10;;
64140;SDS011;50436;50.618;7.932;2022-07-23T02:40:08;14.40;;;8.27;;
64140;SDS011;50436;50.618;7.932;2022-07-23T02:42:37;13.35;;;8.65;;
64140;SDS011;50436;50.618;7.932;2022-07-23T02:45:06;13.52;;;9.65;;
64140;SDS011;50436;50.618;7.932;2022-07-23T02:47:32;12.88;;;8.80;;
64140;SDS011;50436;50.618;7.932;2022-07-23T02:49:59;12.40;;;8.63;;
64140;SDS011;50436;50.618;7.932;2022-07-23T02:52:28;15.27;;;9.85;;
64140;SDS011;50436;50.618;7.932;2022-07-23T02:54:54;14.95;;;9.32;;
64140;SDS011;50436;50.618;7.932;2022-07-23T02:57:19;15.48;;;8.82;;
64140;SDS011;50436;50.618;7.932;2022-07-23T02:59:44;15.05;;;9.15;;
64140;SDS011;50436;50.618;7.932;2022-07-23T03:02:13;15.77;;;8.82;;
64140;SDS011;50436;50.618;7.932;2022-07-23T03:04:39;15.15;;;9.18;;
64140;SDS011;50436;50.618;7.932;2022-07-23T03:07:07;15.30;;;9.32;;
64140;SDS011;50436;50.618;7.932;2022-07-23T03:09:34;15.93;;;8.27;;
64140;SDS011;50436;50.618;7.932;2022-07-23T03:11:59;14.70;;;9.13;;
64140;SDS011;50436;50.618;7.932;2022-07-23T03:14:25;14.73;;;8.63;;
64140;SDS011;50436;50.618;7.932;2022-07-23T03:16:50;11.77;;;6.93;;
64140;SDS011;50436;50.618;7.932;2022-07-23T03:19:19;14.57;;;6.10;;
64140;SDS011;50436;50.618;7.932;2022-07-23T03:21:45;10.23;;;6.03;;
64140;SDS011;50436;50.618;7.932;2022-07-23T03:24:11;12.02;;;6.30;;
64140;SDS011;50436;50.618;7.932;2022-07-23T03:26:36;11.50;;;5.15;;
64140;SDS011;50436;50.618;7.932;2022-07-23T03:29:02;11.65;;;4.90;;
64140;SDS011;50436;50.618;7.932;2022-07-23T03:31:30;9.05;;;5.35;;
64140;SDS011;50436;50.618;7.932;2022-07-23T03:33:56;16.63;;;5.40;;
64140;SDS011;50436;50.618;7.932;2022-07-23T03:36:22;9.15;;;4.70;;
64140;SDS011;50436;50.618;7.932;2022-07-23T03:38:49;7.70;;;4.10;;
64140;SDS011;50436;50.618;7.932;2022-07-23T03:41:18;7.45;;;4.28;;
64140;SDS011;50436;50.618;7.932;2022-07-23T03:43:44;8.25;;;4.60;;
64140;SDS011;50436;50.618;7.932;2022-07-23T03:46:10;7.55;;;4.38;;
64140;SDS011;50436;50.618;7.932;2022-07-23T03:48:37;8.18;;;3.63;;
64140;SDS011;50436;50.618;7.932;2022-07-23T03:51:03;6.43;;;3.80;;
64140;SDS011;50436;50.618;7.932;2022-07-23T03:53:28;8.65;;;3.95;;
64140;SDS011;50436;50.618;7.932;2022-07-23T03:55:54;8.60;;;3.90;;
64140;SDS011;50436;50.618;7.932;2022-07-23T03:58:20;8.10;;;3.55;;
64140;SDS011;50436;50.618;7.932;2022-07-23T04:00:45;6.25;;;3.65;;
64140;SDS011;50436;50.618;7.932;2022-07-23T04:03:11;10.98;;;3.83;;
64140;SDS011;50436;50.618;7.932;2022-07-23T04:05:37;6.63;;;4.13;;
64140;SDS011;50436;50.618;7.932;2022-07-23T04:08:09;9.75;;;4.57;;
64140;SDS011;50436;50.618;7.932;2022-07-23T04:10:38;7.50;;;4.80;;
64140;SDS011;50436;50.618;7.932;2022-07-23T04:13:06;8.02;;;5.22;;
64140;SDS011;50436;50.618;7.932;2022-07-23T04:15:31;10.40;;;5.05;;
64140;SDS011;50436;50.618;7.932;2022-07-23T04:17:57;8.30;;;4.45;;
64140;SDS011;50436;50.618;7.932;2022-07-23T04:20:28;8.48;;;5.30;;
64140;SDS011;50436;50.618;7.932;2022-07-23T04:23:00;9.18;;;5.13;;
64140;SDS011;50436;50.618;7.932;2022-07-23T04:25:26;8.80;;;5.95;;
64140;SDS011;50436;50.618;7.932;2022-07-23T04:27:52;14.27;;;5.80;;
64140;SDS011;50436;50.618;7.932;2022-07-23T04:30:18;10.15;;;5.70;;
64140;SDS011;50436;50.618;7.932;2022-07-23T04:32:43;9.85;;;5.80;;
64140;SDS011;50436;50.618;7.932;2022-07-23T04:35:17;8.35;;;5.70;;
64140;SDS011;50436;50.618;7.932;2022-07-23T04:37:43;10.85;;;5.28;;
64140;SDS011;50436;50.618;7.932;2022-07-23T04:40:09;11.32;;;5.60;;
64140;SDS011;50436;50.618;7.932;2022-07-23T04:42:36;12.10;;;5.28;;
64140;SDS011;50436;50.618;7.932;2022-07-23T04:45:02;7.53;;;5.10;;
64140;SDS011;50436;50.618;7.932;2022-07-23T04:47:29;8.63;;;5.18;;
64140;SDS011;50436;50.618;7.932;2022-07-23T04:49:56;8.90;;;4.80;;
64140;SDS011;50436;50.618;7.932;2022-07-23T04:52:23;9.07;;;4.90;;
64140;SDS011;50436;50.618;7.932;2022-07-23T04:54:49;8.00;;;4.38;;
64140;SDS011;50436;50.618;7.932;2022-07-23T04:57:15;9.50;;;4.70;;
64140;SDS011;50436;50.618;7.932;2022-07-23T04:59:41;10.02;;;5.00;;
64140;SDS011;50436;50.618;7.932;2022-07-23T05:02:08;7.78;;;5.07;;
64140;SDS011;50436;50.618;7.932;2022-07-23T05:04:33;7.38;;;4.93;;
64140;SDS011;50436;50.618;7.932;2022-07-23T05:07:00;12.07;;;5.57;;
64140;SDS011;50436;50.618;7.932;2022-07-23T05:09:26;8.95;;;5.38;;
64140;SDS011;50436;50.618;7.932;2022-07-23T05:11:51;7.72;;;5.10;;
64140;SDS011;50436;50.618;7.932;2022-07-23T05:14:19;9.73;;;5.15;;
64140;SDS011;50436;50.618;7.932;2022-07-23T05:16:45;9.48;;;5.68;;
64140;SDS011;50436;50.618;7.932;2022-07-23T05:19:17;12.85;;;5.63;;
64140;SDS011;50436;50.618;7.932;2022-07-23T05:21:43;10.60;;;5.80;;
64140;SDS011;50436;50.618;7.932;2022-07-23T05:24:10;7.85;;;5.13;;
64140;SDS011;50436;50.618;7.932;2022-07-23T05:26:36;9.15;;;5.10;;
64140;SDS011;50436;50.618;7.932;2022-07-23T05:29:02;9.13;;;5.07;;
64140;SDS011;50436;50.618;7.932;2022-07-23T05:31:28;9.23;;;5.35;;
64140;SDS011;50436;50.618;7.932;2022-07-23T05:33:54;12.43;;;5.82;;
64140;SDS011;50436;50.618;7.932;2022-07-23T05:36:19;10.48;;;5.53;;
64140;SDS011;50436;50.618;7.932;2022-07-23T05:38:51;12.25;;;5.40;;
64140;SDS011;50436;50.618;7.932;2022-07-23T05:41:17;11.10;;;5.22;;
64140;SDS011;50436;50.618;7.932;2022-07-23T05:43:43;8.23;;;5.38;;
64140;SDS011;50436;50.618;7.932;2022-07-23T05:46:10;9.88;;;5.05;;
64140;SDS011;50436;50.618;7.932;2022-07-23T05:48:38;7.55;;;5.00;;
64140;SDS011;50436;50.618;7.932;2022-07-23T05:51:10;10.32;;;5.80;;
64140;SDS011;50436;50.618;7.932;2022-07-23T05:53:35;9.07;;;5.50;;
64140;SDS011;50436;50.618;7.932;2022-07-23T05:56:09;14.75;;;5.40;;
64140;SDS011;50436;50.618;7.932;2022-07-23T05:58:36;9.90;;;5.38;;
64140;SDS011;50436;50.618;7.932;2022-07-23T06:01:02;8.10;;;4.90;;
64140;SDS011;50436;50.618;7.932;2022-07-23T06:03:32;7.70;;;4.95;;
64140;SDS011;50436;50.618;7.932;2022-07-23T06:05:58;8.82;;;4.88;;
64140;SDS011;50436;50.618;7.932;2022-07-23T06:08:24;10.43;;;5.15;;
64140;SDS011;50436;50.618;7.932;2022-07-23T06:10:49;10.45;;;5.03;;
64140;SDS011;50436;50.618;7.932;2022-07-23T06:13:16;7.88;;;5.25;;
64140;SDS011;50436;50.618;7.932;2022-07-23T06:15:43;8.63;;;5.55;;
64140;SDS011;50436;50.618;7.932;2022-07-23T06:18:09;10.15;;;5.93;;
64140;SDS011;50436;50.618;7.932;2022-07-23T06:20:35;8.63;;;5.63;;
64140;SDS011;50436;50.618;7.932;2022-07-23T06:23:00;11.88;;;5.10;;
64140;SDS011;50436;50.618;7.932;2022-07-23T06:25:27;10.55;;;5.40;;
64140;SDS011;50436;50.618;7.932;2022-07-23T06:27:52;11.23;;;6.05;;
64140;SDS011;50436;50.618;7.932;2022-07-23T06:30:18;8.35;;;5.30;;
64140;SDS011;50436;50.618;7.932;2022-07-23T06:32:44;9.07;;;5.18;;
64140;SDS011;50436;50.618;7.932;2022-07-23T06:35:10;9.98;;;5.78;;
64140;SDS011;50436;50.618;7.932;2022-07-23T06:37:36;6.78;;;4.88;;
64140;SDS011;50436;50.618;7.932;2022-07-23T06:40:02;10.55;;;5.15;;
64140;SDS011;50436;50.618;7.932;2022-07-23T06:42:28;10.00;;;5.13;;
64140;SDS011;50436;50.618;7.932;2022-07-23T06:45:00;8.00;;;5.03;;
64140;SDS011;50436;50.618;7.932;2022-07-23T06:47:27;10.77;;;5.97;;
64140;SDS011;50436;50.618;7.932;2022-07-23T06:49:53;9.27;;;5.75;;
64140;SDS011;50436;50.618;7.932;2022-07-23T06:52:18;9.13;;;4.97;;
64140;SDS011;50436;50.618;7.932;2022-07-23T06:54:43;9.73;;;5.70;;
64140;SDS011;50436;50.618;7.932;2022-07-23T06:57:09;9.30;;;5.18;;
64140;SDS011;50436;50.618;7.932;2022-07-23T06:59:35;10.27;;;5.32;;
64140;SDS011;50436;50.618;7.932;2022-07-23T07:02:04;8.77;;;5.63;;
64140;SDS011;50436;50.618;7.932;2022-07-23T07:04:29;10.13;;;5.70;;
64140;SDS011;50436;50.618;7.932;2022-07-23T07:06:54;9.73;;;5.47;;
64140;SDS011;50436;50.618;7.932;2022-07-23T07:09:20;13.55;;;6.07;;
64140;SDS011;50436;50.618;7.932;2022-07-23T07:11:45;8.93;;;5.57;;
64140;SDS011;50436;50.618;7.932;2022-07-23T07:14:11;9.40;;;5.63;;
64140;SDS011;50436;50.618;7.932;2022-07-23T07:16:36;10.38;;;6.18;;
64140;SDS011;50436;50.618;7.932;2022-07-23T07:19:02;12.18;;;7.72;;
64140;SDS011;50436;50.618;7.932;2022-07-23T07:21:27;10.93;;;6.00;;
64140;SDS011;50436;50.618;7.932;2022-07-23T07:23:53;9.70;;;5.88;;
64140;SDS011;50436;50.618;7.932;2022-07-23T07:26:18;10.93;;;6.03;;
64140;SDS011;50436;50.618;7.932;2022-07-23T07:28:46;10.40;;;6.15;;
64140;SDS011;50436;50.618;7.932;2022-07-23T07:31:11;13.52;;;6.70;;
64140;SDS011;50436;50.618;7.932;2022-07-23T07:33:37;13.23;;;6.70;;
64140;SDS011;50436;50.618;7.932;2022-07-23T07:36:03;10.65;;;6.40;;
64140;SDS011;50436;50.618;7.932;2022-07-23T07:38:29;9.68;;;6.47;;
64140;SDS011;50436;50.618;7.932;2022-07-23T07:40:54;12.82;;;7.00;;
64140;SDS011;50436;50.618;7.932;2022-07-23T07:43:20;10.60;;;5.93;;
64140;SDS011;50436;50.618;7.932;2022-07-23T07:45:45;10.68;;;6.95;;
64140;SDS011;50436;50.618;7.932;2022-07-23T07:48:11;10.20;;;6.85;;
64140;SDS011;50436;50.618;7.932;2022-07-23T07:50:37;11.30;;;6.15;;
64140;SDS011;50436;50.618;7.932;2022-07-23T07:53:02;9.95;;;6.32;;
64140;SDS011;50436;50.618;7.932;2022-07-23T07:55:28;13.20;;;6.75;;
64140;SDS011;50436;50.618;7.932;2022-07-23T07:57:54;10.45;;;6.78;;
64140;SDS011;50436;50.618;7.932;2022-07-23T08:00:19;11.40;;;5.80;;
64140;SDS011;50436;50.618;7.932;2022-07-23T08:02:47;10.75;;;6.53;;
64140;SDS011;50436;50.618;7.932;2022-07-23T08:05:13;10.32;;;6.95;;
64140;SDS011;50436;50.618;7.932;2022-07-23T08:07:40;11.57;;;6.20;;
64140;SDS011;50436;50.618;7.932;2022-07-23T08:10:09;11.27;;;6.88;;
64140;SDS011;50436;50.618;7.932;2022-07-23T08:12:42;10.32;;;6.72;;
64140;SDS011;50436;50.618;7.932;2022-07-23T08:15:10;10.73;;;6.65;;
64140;SDS011;50436;50.618;7.932;2022-07-23T08:17:36;9.13;;;6.32;;
64140;SDS011;50436;50.618;7.932;2022-07-23T08:20:03;9.32;;;6.43;;
64140;SDS011;50436;50.618;7.932;2022-07-23T08:25:08;9.35;;;5.85;;
64140;SDS011;50436;50.618;7.932;2022-07-23T08:27:34;11.32;;;6.30;;
64140;SDS011;50436;50.618;7.932;2022-07-23T08:30:00;10.88;;;6.45;;
64140;SDS011;50436;50.618;7.932;2022-07-23T08:32:25;14.52;;;6.22;;
64140;SDS011;50436;50.618;7.932;2022-07-23T08:34:51;9.88;;;5.43;;
64140;SDS011;50436;50.618;7.932;2022-07-23T08:37:16;11.40;;;6.22;;
64140;SDS011;50436;50.618;7.932;2022-07-23T08:39:41;10.00;;;6.25;;
64140;SDS011;50436;50.618;7.932;2022-07-23T08:42:07;10.05;;;6.15;;
64140;SDS011;50436;50.618;7.932;2022-07-23T08:44:33;8.90;;;5.13;;
64140;SDS011;50436;50.618;7.932;2022-07-23T08:47:00;12.68;;;5.68;;
64140;SDS011;50436;50.618;7.932;2022-07-23T08:49:26;10.73;;;6.20;;
64140;SDS011;50436;50.618;7.932;2022-07-23T08:51:56;11.63;;;5.88;;
64140;SDS011;50436;50.618;7.932;2022-07-23T08:54:22;8.75;;;5.70;;
64140;SDS011;50436;50.618;7.932;2022-07-23T08:56:48;12.32;;;5.75;;
64140;SDS011;50436;50.618;7.932;2022-07-23T08:59:14;9.02;;;5.35;;
64140;SDS011;50436;50.618;7.932;2022-07-23T09:01:40;10.68;;;5.80;;
64140;SDS011;50436;50.618;7.932;2022-07-23T09:04:05;8.00;;;5.30;;
64140;SDS011;50436;50.618;7.932;2022-07-23T09:06:31;10.25;;;5.18;;
64140;SDS011;50436;50.618;7.932;2022-07-23T09:08:56;8.82;;;4.97;;
64140;SDS011;50436;50.618;7.932;2022-07-23T09:11:22;8.55;;;5.20;;
64140;SDS011;50436;50.618;7.932;2022-07-23T09:13:48;7.97;;;5.20;;
64140;SDS011;50436;50.618;7.932;2022-07-23T09:18:46;6.55;;;4.45;;
64140;SDS011;50436;50.618;7.932;2022-07-23T09:21:19;6.23;;;4.30;;
64140;SDS011;50436;50.618;7.932;2022-07-23T09:23:46;8.52;;;4.25;;
64140;SDS011;50436;50.618;7.932;2022-07-23T09:28:56;7.05;;;3.67;;
64140;SDS011;50436;50.618;7.932;2022-07-23T09:31:23;6.97;;;4.15;;
64140;SDS011;50436;50.618;7.932;2022-07-23T09:33:49;11.43;;;4.28;;
64140;SDS011;50436;50.618;7.932;2022-07-23T09:36:15;7.00;;;4.22;;
64140;SDS011;50436;50.618;7.932;2022-07-23T09:38:52;5.97;;;3.85;;
64140;SDS011;50436;50.618;7.932;2022-07-23T09:41:18;7.45;;;4.57;;
64140;SDS011;50436;50.618;7.932;2022-07-23T09:43:43;9.30;;;3.72;;
64140;SDS011;50436;50.618;7.932;2022-07-23T09:48:51;6.38;;;3.38;;
64140;SDS011;50436;50.618;7.932;2022-07-23T09:51:18;6.00;;;3.20;;
64140;SDS011;50436;50.618;7.932;2022-07-23T09:53:56;7.20;;;3.25;;
64140;SDS011;50436;50.618;7.932;2022-07-23T09:56:22;6.47;;;2.90;;
64140;SDS011;50436;50.618;7.932;2022-07-23T09:58:49;4.10;;;2.42;;
64140;SDS011;50436;50.618;7.932;2022-07-23T10:01:28;5.55;;;2.50;;
64140;SDS011;50436;50.618;7.932;2022-07-23T10:03:54;5.75;;;3.05;;
64140;SDS011;50436;50.618;7.932;2022-07-23T10:06:39;6.35;;;3.25;;
64140;SDS011;50436;50.618;7.932;2022-07-23T10:09:34;4.07;;;2.53;;
64140;SDS011;50436;50.618;7.932;2022-07-23T10:12:25;6.28;;;2.38;;
64140;SDS011;50436;50.618;7.932;2022-07-23T10:14:57;6.07;;;2.83;;
64140;SDS011;50436;50.618;7.932;2022-07-23T10:17:23;5.60;;;3.15;;
64140;SDS011;50436;50.618;7.932;2022-07-23T10:19:49;5.20;;;2.92;;
64140;SDS011;50436;50.618;7.932;2022-07-23T10:22:19;5.45;;;2.75;;
64140;SDS011;50436;50.618;7.932;2022-07-23T10:30:16;4.32;;;2.70;;
64140;SDS011;50436;50.618;7.932;2022-07-23T10:32:56;6.10;;;2.72;;
64140;SDS011;50436;50.618;7.932;2022-07-23T10:38:30;4.68;;;2.90;;
64140;SDS011;50436;50.618;7.932;2022-07-23T10:41:07;4.25;;;2.60;;
64140;SDS011;50436;50.618;7.932;2022-07-23T10:43:32;4.68;;;2.85;;
64140;SDS011;50436;50.618;7.932;2022-07-23T10:49:24;5.40;;;2.60;;
64140;SDS011;50436;50.618;7.932;2022-07-23T10:54:42;4.20;;;2.42;;
64140;SDS011;50436;50.618;7.932;2022-07-23T10:57:19;4.88;;;2.63;;
64140;SDS011;50436;50.618;7.932;2022-07-23T11:02:37;4.70;;;2.50;;
64140;SDS011;50436;50.618;7.932;2022-07-23T11:05:11;6.37;;;2.60;;
64140;SDS011;50436;50.618;7.932;2022-07-23T11:31:59;7.63;;;2.40;;
64140;SDS011;50436;50.618;7.932;2022-07-23T11:37:08;4.72;;;2.30;;
64140;SDS011;50436;50.618;7.932;2022-07-23T11:39:35;3.63;;;2.17;;
64140;SDS011;50436;50.618;7.932;2022-07-23T11:42:02;4.03;;;2.30;;
64140;SDS011;50436;50.618;7.932;2022-07-23T11:46:59;3.92;;;2.38;;
64140;SDS011;50436;50.618;7.932;2022-07-23T11:49:25;5.15;;;2.58;;
64140;SDS011;50436;50.618;7.932;2022-07-23T11:52:10;5.38;;;2.25;;
64140;SDS011;50436;50.618;7.932;2022-07-23T11:54:57;3.92;;;2.30;;
64140;SDS011;50436;50.618;7.932;2022-07-23T11:57:27;4.45;;;2.40;;
64140;SDS011;50436;50.618;7.932;2022-07-23T12:00:05;4.55;;;2.20;;
64140;SDS011;50436;50.618;7.932;2022-07-23T12:02:48;5.80;;;2.33;;
64140;SDS011;50436;50.618;7.932;2022-07-23T12:05:22;6.45;;;2.45;;
64140;SDS011;50436;50.618;7.932;2022-07-23T12:07:51;5.18;;;2.60;;
64140;SDS011;50436;50.618;7.932;2022-07-23T12:10:28;8.00;;;2.45;;
64140;SDS011;50436;50.618;7.932;2022-07-23T12:12:59;4.15;;;2.40;;
64140;SDS011;50436;50.618;7.932;2022-07-23T12:15:27;5.82;;;2.20;;
64140;SDS011;50436;50.618;7.932;2022-07-23T12:17:58;3.90;;;2.45;;
64140;SDS011;50436;50.618;7.932;2022-07-23T12:20:26;5.75;;;2.70;;
64140;SDS011;50436;50.618;7.932;2022-07-23T12:23:12;5.20;;;2.75;;
64140;SDS011;50436;50.618;7.932;2022-07-23T12:25:40;4.43;;;2.50;;
64140;SDS011;50436;50.618;7.932;2022-07-23T12:28:09;5.55;;;2.45;;
64140;SDS011;50436;50.618;7.932;2022-07-23T12:30:40;5.03;;;2.65;;
64140;SDS011;50436;50.618;7.932;2022-07-23T12:33:08;5.57;;;2.50;;
64140;SDS011;50436;50.618;7.932;2022-07-23T12:35:39;5.13;;;2.55;;
64140;SDS011;50436;50.618;7.932;2022-07-23T12:38:07;5.82;;;2.50;;
64140;SDS011;50436;50.618;7.932;2022-07-23T12:40:36;4.13;;;2.53;;
64140;SDS011;50436;50.618;7.932;2022-07-23T12:43:07;4.63;;;2.45;;
64140;SDS011;50436;50.618;7.932;2022-07-23T12:45:46;3.92;;;2.50;;
64140;SDS011;50436;50.618;7.932;2022-07-23T12:50:51;4.75;;;2.60;;
64140;SDS011;50436;50.618;7.932;2022-07-23T12:53:20;5.65;;;2.85;;
64140;SDS011;50436;50.618;7.932;2022-07-23T12:55:48;10.00;;;2.67;;
64140;SDS011;50436;50.618;7.932;2022-07-23T12:58:15;4.00;;;2.28;;
64140;SDS011;50436;50.618;7.932;2022-07-23T13:00:49;5.13;;;2.63;;
64140;SDS011;50436;50.618;7.932;2022-07-23T13:03:25;6.20;;;2.47;;
64140;SDS011;50436;50.618;7.932;2022-07-23T13:05:53;3.80;;;2.30;;
64140;SDS011;50436;50.618;7.932;2022-07-23T13:08:20;7.63;;;2.80;;
64140;SDS011;50436;50.618;7.932;2022-07-23T13:10:46;4.38;;;2.50;;
64140;SDS011;50436;50.618;7.932;2022-07-23T13:13:16;3.78;;;2.50;;
64140;SDS011;50436;50.618;7.932;2022-07-23T13:15:45;4.70;;;2.65;;
64140;SDS011;50436;50.618;7.932;2022-07-23T13:18:10;4.72;;;2.72;;
64140;SDS011;50436;50.618;7.932;2022-07-23T13:20:36;6.82;;;2.70;;
64140;SDS011;50436;50.618;7.932;2022-07-23T13:23:03;8.25;;;2.60;;
64140;SDS011;50436;50.618;7.932;2022-07-23T13:25:32;4.20;;;2.50;;
64140;SDS011;50436;50.618;7.932;2022-07-23T13:27:58;4.03;;;2.42;;
64140;SDS011;50436;50.618;7.932;2022-07-23T13:30:23;5.32;;;2.33;;
64140;SDS011;50436;50.618;7.932;2022-07-23T13:32:49;5.85;;;2.50;;
64140;SDS011;50436;50.618;7.932;2022-07-23T13:35:14;4.15;;;2.35;;
64140;SDS011;50436;50.618;7.932;2022-07-23T13:37:40;6.53;;;2.58;;
64140;SDS011;50436;50.618;7.932;2022-07-23T13:40:06;4.15;;;2.35;;
64140;SDS011;50436;50.618;7.932;2022-07-23T13:42:32;5.25;;;2.63;;
64140;SDS011;50436;50.618;7.932;2022-07-23T13:44:57;4.70;;;2.45;;
64140;SDS011;50436;50.618;7.932;2022-07-23T13:47:23;4.03;;;2.20;;
64140;SDS011;50436;50.618;7.932;2022-07-23T13:49:48;6.07;;;2.10;;
64140;SDS011;50436;50.618;7.932;2022-07-23T13:52:14;4.13;;;2.63;;
64140;SDS011;50436;50.618;7.932;2022-07-23T13:54:40;4.40;;;2.58;;
64140;SDS011;50436;50.618;7.932;2022-07-23T13:57:05;4.53;;;2.60;;
64140;SDS011;50436;50.618;7.932;2022-07-23T13:59:31;4.97;;;2.35;;
64140;SDS011;50436;50.618;7.932;2022-07-23T14:01:56;5.47;;;2.50;;
64140;SDS011;50436;50.618;7.932;2022-07-23T14:04:22;5.38;;;2.42;;
64140;SDS011;50436;50.618;7.932;2022-07-23T14:06:47;6.57;;;2.47;;
64140;SDS011;50436;50.618;7.932;2022-07-23T14:09:13;6.38;;;2.70;;
64140;SDS011;50436;50.618;7.932;2022-07-23T14:11:38;4.28;;;2.35;;
64140;SDS011;50436;50.618;7.932;2022-07-23T14:14:04;5.60;;;2.78;;
64140;SDS011;50436;50.618;7.932;2022-07-23T14:16:30;6.65;;;2.67;;
64140;SDS011;50436;50.618;7.932;2022-07-23T14:18:56;5.82;;;2.80;;
64140;SDS011;50436;50.618;7.932;2022-07-23T14:21:21;7.22;;;3.08;;
64140;SDS011;50436;50.618;7.932;2022-07-23T14:23:47;5.80;;;2.70;;
64140;SDS011;50436;50.618;7.932;2022-07-23T14:26:12;4.93;;;2.40;;
64140;SDS011;50436;50.618;7.932;2022-07-23T14:28:38;4.68;;;2.45;;
64140;SDS011;50436;50.618;7.932;2022-07-23T14:31:03;4.20;;;2.60;;
64140;SDS011;50436;50.618;7.932;2022-07-23T14:33:29;4.32;;;2.60;;
64140;SDS011;50436;50.618;7.932;2022-07-23T14:35:54;5.15;;;2.58;;
64140;SDS011;50436;50.618;7.932;2022-07-23T14:38:20;4.18;;;2.67;;
64140;SDS011;50436;50.618;7.932;2022-07-23T14:40:45;5.97;;;2.78;;
64140;SDS011;50436;50.618;7.932;2022-07-23T14:43:11;7.70;;;2.90;;
64140;SDS011;50436;50.618;7.932;2022-07-23T14:45:36;4.18;;;2.55;;
64140;SDS011;50436;50.618;7.932;2022-07-23T14:48:02;5.57;;;2.33;;
64140;SDS011;50436;50.618;7.932;2022-07-23T14:50:28;4.03;;;2.45;;
64140;SDS011;50436;50.618;7.932;2022-07-23T14:52:54;3.80;;;2.50;;
64140;SDS011;50436;50.618;7.932;2022-07-23T14:55:20;7.07;;;2.80;;
64140;SDS011;50436;50.618;7.932;2022-07-23T14:57:45;5.35;;;2.67;;
64140;SDS011;50436;50.618;7.932;2022-07-23T15:00:11;7.00;;;2.72;;
64140;SDS011;50436;50.618;7.932;2022-07-23T15:02:37;5.38;;;2.70;;
64140;SDS011;50436;50.618;7.932;2022-07-23T15:05:03;4.85;;;3.20;;
64140;SDS011;50436;50.618;7.932;2022-07-23T15:07:29;6.82;;;2.90;;
64140;SDS011;50436;50.618;7.932;2022-07-23T15:09:55;4.30;;;2.70;;
64140;SDS011;50436;50.618;7.932;2022-07-23T15:12:22;5.97;;;2.30;;
64140;SDS011;50436;50.618;7.932;2022-07-23T15:14:47;5.30;;;2.80;;
64140;SDS011;50436;50.618;7.932;2022-07-23T15:17:13;5.55;;;2.47;;
64140;SDS011;50436;50.618;7.932;2022-07-23T15:19:38;3.67;;;2.60;;
64140;SDS011;50436;50.618;7.932;2022-07-23T15:22:03;5.18;;;2.53;;
64140;SDS011;50436;50.618;7.932;2022-07-23T15:24:30;4.53;;;2.78;;
64140;SDS011;50436;50.618;7.932;2022-07-23T15:26:55;6.18;;;2.75;;
64140;SDS011;50436;50.618;7.932;2022-07-23T15:29:21;4.43;;;2.58;;
64140;SDS011;50436;50.618;7.932;2022-07-23T15:31:46;6.35;;;2.85;;
64140;SDS011;50436;50.618;7.932;2022-07-23T15:34:12;7.05;;;2.80;;
64140;SDS011;50436;50.618;7.932;2022-07-23T15:36:38;4.43;;;2.72;;
64140;SDS011;50436;50.618;7.932;2022-07-23T15:39:03;5.00;;;2.88;;
64140;SDS011;50436;50.618;7.932;2022-07-23T15:41:29;4.60;;;2.78;;
64140;SDS011;50436;50.618;7.932;2022-07-23T15:43:55;8.43;;;2.67;;